Time;durP1;ratioP1;P1;durP2;ratioP2;P2;SDS_P1;SDS_P2;PMS_P1;PMS_P2;Temp;Humidity;BMP_temperature;BMP_pressure;BME280_temperature;BME280_humidity;BME280_pressure;Samples;Min_cycle;Max_cycle;Signal;HPM_P1;HPM_P2
2022/11/18 00:01:12;;;;;;;13.80;8.70;;;;;;;0.07;91.65;97098.48;103116;1313;22513;-72
2022/11/18 00:03:40;;;;;;;10.80;7.00;;;;;;;0.04;91.24;97102.61;102921;1290;139009;-72
2022/11/18 00:06:10;;;;;;;14.30;8.40;;;;;;;0.01;91.21;97103.20;103023;1297;22500;-72
2022/11/18 00:08:37;;;;;;;14.80;8.20;;;;;;;-0.00;91.36;97099.47;102811;1312;138111;-72
2022/11/18 00:11:07;;;;;;;12.10;7.40;;;;;;;-0.01;91.45;97099.71;102928;1312;22486;-72
2022/11/18 00:16:19;;;;;;;14.80;8.20;;;;;;;0.01;91.72;97102.83;102857;1313;139615;-72
2022/11/18 00:18:46;;;;;;;15.00;7.80;;;;;;;0.01;91.50;97094.48;102931;1294;22488;-72
2022/11/18 00:21:13;;;;;;;12.80;8.30;;;;;;;0.00;91.47;97090.86;102816;1305;140018;-72
2022/11/18 00:23:40;;;;;;;11.50;7.10;;;;;;;-0.01;91.47;97090.02;103003;1298;22741;-72
2022/11/18 00:26:13;;;;;;;14.10;7.40;;;;;;;-0.02;91.42;97094.61;102944;1289;25276;-72
2022/11/18 00:28:43;;;;;;;15.30;8.00;;;;;;;-0.02;91.54;97089.45;102980;1293;138217;-72
2022/11/18 00:31:12;;;;;;;16.90;7.80;;;;;;;-0.03;91.50;97089.59;102968;1291;22575;-72
2022/11/18 00:33:42;;;;;;;12.00;8.10;;;;;;;-0.03;91.37;97095.23;102948;1288;138252;-71
2022/11/18 00:36:11;;;;;;;14.00;8.00;;;;;;;-0.04;91.38;97094.95;103004;1312;22515;-71
2022/11/18 00:38:39;;;;;;;14.40;7.40;;;;;;;-0.03;91.65;97097.13;102872;1312;138297;-72
2022/11/18 00:41:11;;;;;;;13.70;8.00;;;;;;;-0.02;91.67;97099.88;102926;1304;24320;-71
2022/11/18 00:43:39;;;;;;;14.30;8.20;;;;;;;-0.00;92.04;97101.77;103040;1288;22515;-72
2022/11/18 00:46:08;;;;;;;11.30;7.50;;;;;;;0.03;91.82;97099.62;102996;1288;138266;-71
2022/11/18 00:48:35;;;;;;;;;;;;;;;0.04;91.80;97099.03;103020;1291;25361;-71
2022/11/18 00:51:10;;;;;;;13.60;8.10;;;;;;;0.05;91.36;97098.29;102869;1312;124855;-72
2022/11/18 00:53:36;;;;;;;13.00;8.20;;;;;;;0.04;91.34;97102.13;102953;1297;161566;-72
2022/11/18 00:56:04;;;;;;;14.80;7.70;;;;;;;0.04;91.16;97106.29;102955;1304;23348;-72
2022/11/18 00:58:31;;;;;;;16.00;8.20;;;;;;;0.05;91.35;97104.34;102847;1289;137934;-72
2022/11/18 01:00:58;;;;;;;13.10;7.70;;;;;;;0.05;91.39;97099.64;102935;1313;24253;-72
2022/11/18 01:03:27;;;;;;;13.90;8.10;;;;;;;0.06;91.42;97099.68;102968;1312;138023;-72
2022/11/18 01:05:54;;;;;;;13.50;7.70;;;;;;;0.06;91.25;97096.30;103109;1312;24407;-72
2022/11/18 01:08:21;;;;;;;14.20;7.40;;;;;;;0.06;91.45;97092.89;102943;1312;22908;-72
2022/11/18 01:10:48;;;;;;;14.80;7.90;;;;;;;0.06;91.22;97091.29;102870;1304;137953;-71
2022/11/18 01:13:18;;;;;;;14.50;8.00;;;;;;;0.05;91.37;97087.66;102946;1304;22671;-72
2022/11/18 01:15:46;;;;;;;15.00;8.30;;;;;;;0.04;91.17;97088.00;102951;1289;140083;-72
2022/11/18 01:18:14;;;;;;;15.30;8.30;;;;;;;0.04;91.15;97086.89;103008;1287;22875;-71
2022/11/18 01:20:41;;;;;;;13.90;8.70;;;;;;;0.04;91.03;97087.80;102900;1289;138589;-72
2022/11/18 01:23:09;;;;;;;12.40;8.10;;;;;;;0.03;91.00;97087.31;102941;1313;22568;-71
2022/11/18 01:25:39;;;;;;;14.90;8.10;;;;;;;0.02;91.03;97087.02;103014;1297;22487;-72
2022/11/18 01:28:06;;;;;;;15.30;7.80;;;;;;;0.02;90.98;97084.13;102977;1312;138079;-72
2022/11/18 01:30:35;;;;;;;14.40;7.90;;;;;;;0.02;90.80;97076.48;103147;1304;22739;-71
2022/11/18 01:33:04;;;;;;;13.10;8.30;;;;;;;0.02;91.04;97069.55;102927;1304;138801;-72
2022/11/18 01:35:35;;;;;;;10.70;7.20;;;;;;;0.01;90.85;97070.92;102998;1289;24654;-71
2022/11/18 01:38:03;;;;;;;11.50;7.50;;;;;;;-0.01;90.69;97074.18;103013;1298;22497;-71
2022/11/18 01:40:31;;;;;;;12.30;7.30;;;;;;;-0.00;90.93;97078.05;102816;1298;138224;-71
2022/11/18 01:42:58;;;;;;;13.40;8.40;;;;;;;-0.01;90.83;97076.86;103013;1288;22485;-71
2022/11/18 01:45:33;;;;;;;14.60;7.80;;;;;;;-0.02;90.41;97075.08;102946;1304;138255;-71
2022/11/18 01:48:12;;;;;;;13.90;8.50;;;;;;;-0.03;90.47;97078.44;103006;1304;24275;-72
2022/11/18 01:50:53;;;;;;;14.30;7.90;;;;;;;-0.05;90.54;97080.77;102897;1301;138457;-71
2022/11/18 01:53:42;;;;;;;12.40;7.60;;;;;;;-0.05;90.39;97080.63;102614;1298;155317;-72
2022/11/18 01:56:17;;;;;;;11.60;7.40;;;;;;;-0.06;90.34;97072.84;103016;1288;22616;-72
2022/11/18 01:58:56;;;;;;;12.00;7.20;;;;;;;-0.08;90.59;97066.51;102947;1289;138108;-72
2022/11/18 02:01:23;;;;;;;13.60;7.70;;;;;;;-0.09;90.62;97064.08;103120;1299;22621;-71
2022/11/18 02:03:52;;;;;;;14.30;8.20;;;;;;;-0.09;90.58;97066.08;103048;1312;138187;-72
2022/11/18 02:06:19;;;;;;;11.70;7.60;;;;;;;-0.08;90.66;97067.90;103166;1312;24278;-73
2022/11/18 02:08:51;;;;;;;13.30;8.10;;;;;;;-0.08;90.64;97061.95;103072;1313;138351;-71
2022/11/18 02:14:07;;;;;;;11.20;7.50;;;;;;;-0.08;90.33;97051.40;102931;1313;25449;-72
2022/11/18 02:17:04;;;;;;;13.40;7.70;;;;;;;-0.09;90.25;97046.84;102934;1288;138346;-72
2022/11/18 02:19:46;;;;;;;13.70;8.20;;;;;;;-0.10;90.42;97042.69;102959;1312;26565;-72
2022/11/18 02:22:16;;;;;;;16.90;8.40;;;;;;;-0.11;90.47;97040.67;102851;1312;138181;-72
2022/11/18 02:25:14;;;;;;;14.30;7.90;;;;;;;-0.11;90.96;97040.75;102997;1304;22480;-72
2022/11/18 02:27:50;;;;;;;15.60;8.80;;;;;;;-0.09;90.72;97045.20;102925;1313;138404;-72
2022/11/18 02:30:18;;;;;;;15.00;8.60;;;;;;;-0.08;90.69;97044.00;102901;1313;23879;-71
2022/11/18 02:32:49;;;;;;;;;;;;;;;-0.08;90.74;97039.45;102833;1295;139035;-72
2022/11/18 02:35:33;;;;;;;15.20;7.80;;;;;;;-0.09;90.51;97036.55;102898;1313;22621;-72
2022/11/18 02:38:15;;;;;;;16.90;9.40;;;;;;;-0.09;90.46;97035.07;102988;1298;22501;-72
2022/11/18 02:40:47;;;;;;;15.70;8.30;;;;;;;-0.10;90.73;97031.02;102856;1292;138294;-72
2022/11/18 02:43:38;;;;;;;16.10;9.30;;;;;;;-0.11;90.59;97029.34;102903;1298;22553;-71
2022/11/18 02:46:15;;;;;;;19.30;10.00;;;;;;;-0.12;90.59;97023.72;102935;1294;138084;-72
2022/11/18 02:48:48;;;;;;;16.40;8.50;;;;;;;-0.13;90.56;97031.24;102978;1312;22528;-72
2022/11/18 02:51:22;;;;;;;15.40;9.10;;;;;;;-0.14;90.66;97034.25;102849;1288;138258;-72
2022/11/18 02:53:51;;;;;;;16.30;9.30;;;;;;;-0.15;90.69;97032.83;103006;1304;22679;-72
2022/11/18 02:56:20;;;;;;;20.30;10.00;;;;;;;-0.14;90.96;97028.30;103180;1298;22809;-72
2022/11/18 02:58:47;;;;;;;18.90;9.60;;;;;;;-0.13;91.24;97032.15;102967;1301;138552;-72
2022/11/18 03:01:26;;;;;;;15.00;8.70;;;;;;;-0.11;91.08;97037.90;103058;1298;22476;-72
2022/11/18 03:03:53;;;;;;;18.60;9.80;;;;;;;-0.10;91.29;97044.78;102911;1313;138473;-72
2022/11/18 03:06:37;;;;;;;18.20;9.90;;;;;;;-0.09;91.32;97046.27;103000;1296;23450;-72
2022/11/18 03:09:04;;;;;;;18.50;9.50;;;;;;;-0.09;91.11;97049.27;102780;1294;139247;-71
2022/11/18 03:11:36;;;;;;;14.30;9.30;;;;;;;-0.09;91.15;97041.31;102946;1312;25564;-72
2022/11/18 03:14:23;;;;;;;17.00;9.20;;;;;;;-0.09;91.39;97035.92;103158;1298;22467;-72
2022/11/18 03:16:58;;;;;;;18.30;9.10;;;;;;;-0.10;91.39;97035.52;103208;1289;138090;-73
2022/11/18 03:19:43;;;;;;;21.30;10.40;;;;;;;-0.10;91.24;97033.59;103227;1298;22539;-72
2022/11/18 03:22:19;;;;;;;17.50;9.20;;;;;;;-0.11;91.14;97029.11;102416;1309;138288;-71
2022/11/18 03:25:05;;;;;;;19.10;10.10;;;;;;;-0.12;91.24;97022.86;102512;1316;23930;-71
2022/11/18 03:28:08;;;;;;;20.10;10.90;;;;;;;-0.12;91.56;97024.17;102632;1300;138623;-72
2022/11/18 03:30:41;;;;;;;18.10;10.00;;;;;;;-0.12;91.40;97019.84;102617;1310;22636;-72
2022/11/18 03:33:13;;;;;;;17.60;9.90;;;;;;;-0.12;91.43;97015.69;102545;1307;138541;-71
2022/11/18 03:35:45;;;;;;;17.80;10.60;;;;;;;-0.14;91.34;97013.39;102529;1316;23105;-72
2022/11/18 03:38:18;;;;;;;18.00;9.80;;;;;;;-0.14;91.79;97021.27;102895;1297;22468;-71
2022/11/18 03:40:52;;;;;;;17.40;9.90;;;;;;;-0.14;91.61;97025.04;102921;1312;138088;-72
2022/11/18 03:43:22;;;;;;;19.80;10.50;;;;;;;-0.16;91.82;97030.13;103007;1294;25217;-71
2022/11/18 03:45:53;;;;;;;19.50;10.60;;;;;;;-0.16;92.12;97029.05;102934;1303;138267;-71
2022/11/18 03:48:28;;;;;;;19.20;10.70;;;;;;;-0.16;92.05;97030.28;103086;1298;22508;-71
2022/11/18 03:51:01;;;;;;;19.40;10.40;;;;;;;-0.17;92.39;97029.50;102958;1296;138412;-71
2022/11/18 03:53:33;;;;;;;19.30;10.70;;;;;;;-0.17;92.25;97025.42;103090;1312;25391;-71
2022/11/18 03:56:12;;;;;;;20.20;11.60;;;;;;;-0.16;92.50;97022.41;103303;1313;22497;-71
2022/11/18 03:59:20;;;;;;;16.50;9.70;;;;;;;-0.18;92.32;97014.27;102899;1291;138851;-72
2022/11/18 04:02:07;;;;;;;17.70;9.90;;;;;;;-0.19;92.27;97007.48;102246;1303;22665;-71
2022/11/18 04:04:35;;;;;;;17.00;10.70;;;;;;;-0.19;92.74;97005.35;101887;1321;138271;-71
2022/11/18 04:07:20;;;;;;;16.60;9.40;;;;;;;-0.21;92.58;97001.16;102250;1318;23065;-71
2022/11/18 04:09:59;;;;;;;19.40;10.50;;;;;;;-0.25;92.60;96999.11;101906;1303;138105;-71
2022/11/18 04:12:32;;;;;;;14.90;9.20;;;;;;;-0.27;92.71;96993.98;102133;1310;23920;-71
2022/11/18 04:14:59;;;;;;;18.70;10.00;;;;;;;-0.31;92.53;96991.16;102302;1321;138570;-71
2022/11/18 04:17:27;;;;;;;18.10;11.00;;;;;;;-0.34;92.82;96989.19;102158;1312;25293;-71
2022/11/18 04:19:55;;;;;;;16.50;9.70;;;;;;;-0.35;92.98;96994.88;102032;1302;22490;-71
2022/11/18 04:22:22;;;;;;;18.40;10.00;;;;;;;-0.34;93.52;96994.17;101933;1312;138181;-71
2022/11/18 04:24:48;;;;;;;14.80;9.20;;;;;;;-0.33;93.28;96991.77;102035;1309;22498;-71
2022/11/18 04:27:16;;;;;;;20.10;11.30;;;;;;;-0.34;93.32;96991.20;102072;1308;138453;-71
2022/11/18 04:29:42;;;;;;;18.70;10.20;;;;;;;-0.33;93.49;96996.06;102060;1320;22482;-72
2022/11/18 04:32:09;;;;;;;16.90;10.00;;;;;;;-0.32;93.50;96989.31;102513;1303;23237;-72
2022/11/18 04:34:36;;;;;;;17.30;10.00;;;;;;;-0.32;93.40;96989.18;102060;1298;138649;-72
2022/11/18 04:37:03;;;;;;;15.40;9.60;;;;;;;-0.32;93.28;96991.12;102742;1306;22910;-71
2022/11/18 04:39:30;;;;;;;15.70;9.30;;;;;;;-0.32;93.20;96991.84;102862;1295;139620;-71
2022/11/18 04:41:57;;;;;;;18.40;10.80;;;;;;;-0.33;93.34;96993.58;103030;1301;24398;-71
2022/11/18 04:44:30;;;;;;;19.80;10.60;;;;;;;-0.33;93.42;96993.27;102928;1299;22495;-71
2022/11/18 04:46:59;;;;;;;17.40;9.30;;;;;;;-0.32;93.45;96996.48;102935;1300;138327;-72
2022/11/18 04:49:26;;;;;;;19.00;9.70;;;;;;;-0.31;93.70;96993.17;102961;1291;22537;-71
2022/11/18 04:51:54;;;;;;;17.30;10.40;;;;;;;-0.31;93.63;96990.54;102800;1309;138095;-71
2022/11/18 04:54:22;;;;;;;16.20;9.90;;;;;;;-0.30;93.55;96985.55;102903;1303;24218;-71
2022/11/18 04:56:49;;;;;;;16.30;10.20;;;;;;;-0.30;93.39;96981.81;102900;1301;138256;-71
2022/11/18 04:59:19;;;;;;;18.20;10.30;;;;;;;-0.31;93.87;96982.18;103016;1295;24224;-71
2022/11/18 05:01:48;;;;;;;20.00;11.40;;;;;;;-0.31;93.66;96983.46;102989;1299;25282;-71
2022/11/18 05:04:18;;;;;;;19.00;10.60;;;;;;;-0.30;93.91;96982.10;103018;1287;138328;-71
2022/11/18 05:06:45;;;;;;;18.20;10.70;;;;;;;-0.28;93.84;96989.13;103185;1290;22591;-71
2022/11/18 05:09:12;;;;;;;19.00;11.30;;;;;;;-0.26;94.06;96994.52;102809;1295;138417;-72
2022/11/18 05:14:26;;;;;;;23.70;11.90;;;;;;;-0.23;94.06;96995.23;102878;1305;22543;-71
2022/11/18 05:16:54;;;;;;;18.20;11.10;;;;;;;-0.25;93.90;96997.30;103065;1297;139347;-71
2022/11/18 05:19:22;;;;;;;17.80;10.40;;;;;;;-0.26;93.86;97003.08;102985;1304;24413;-71
2022/11/18 05:21:50;;;;;;;21.50;11.30;;;;;;;-0.27;93.86;97006.06;102801;1294;138364;-71
2022/11/18 05:24:17;;;;;;;19.00;11.20;;;;;;;-0.28;93.55;97011.43;103125;1290;36117;-72
2022/11/18 05:26:44;;;;;;;18.80;10.50;;;;;;;-0.30;93.40;97007.82;102707;1295;138515;-71
2022/11/18 05:29:12;;;;;;;19.20;9.80;;;;;;;-0.33;93.51;97011.41;102839;1289;24402;-71
2022/11/18 05:31:38;;;;;;;17.30;9.50;;;;;;;-0.33;93.51;97013.72;102992;1290;22480;-71
2022/11/18 05:34:05;;;;;;;18.50;10.30;;;;;;;-0.34;93.64;97018.61;102868;1296;138079;-71
2022/11/18 05:36:32;;;;;;;17.40;9.30;;;;;;;-0.34;93.65;97020.05;102877;1294;22531;-71
2022/11/18 05:39:00;;;;;;;22.20;12.70;;;;;;;-0.33;93.36;97013.96;102702;1288;138619;-71
2022/11/18 05:44:12;;;;;;;19.50;10.80;;;;;;;-0.34;93.49;97021.54;102787;1294;25252;-72
2022/11/18 05:46:39;;;;;;;18.20;11.10;;;;;;;-0.35;93.38;97018.00;102721;1311;138282;-72
2022/11/18 05:49:06;;;;;;;21.50;12.40;;;;;;;-0.37;93.74;97018.49;102867;1298;22478;-72
2022/11/18 05:51:34;;;;;;;19.10;10.70;;;;;;;-0.36;93.77;97013.47;102770;1288;138303;-72
2022/11/18 05:54:07;;;;;;;18.60;11.40;;;;;;;-0.37;93.52;97016.94;102978;1299;22633;-72
2022/11/18 05:56:39;;;;;;;20.40;10.70;;;;;;;-0.39;93.63;97018.38;102887;1299;22496;-71
2022/11/18 05:59:07;;;;;;;19.70;11.00;;;;;;;-0.40;93.76;97015.21;102877;1295;24191;-71
2022/11/18 06:01:39;;;;;;;20.70;11.10;;;;;;;-0.43;93.66;97014.33;102965;1303;22442;-71
2022/11/18 06:04:47;;;;;;;20.20;12.00;;;;;;;-0.45;93.76;97018.23;102728;1312;138426;-72
2022/11/18 06:07:36;;;;;;;22.80;12.10;;;;;;;-0.48;94.10;97018.21;102800;1294;22957;-71
2022/11/18 06:10:04;;;;;;;25.10;12.50;;;;;;;-0.48;94.09;97024.17;102721;1303;138533;-71
2022/11/18 06:12:37;;;;;;;23.30;11.40;;;;;;;-0.49;94.04;97028.78;102835;1294;25290;-72
2022/11/18 06:15:10;;;;;;;24.10;12.40;;;;;;;-0.51;94.00;97035.57;102789;1289;138494;-71
2022/11/18 06:18:09;;;;;;;20.90;10.40;;;;;;;-0.50;94.29;97037.67;102914;1293;22556;-72
2022/11/18 06:20:40;;;;;;;22.90;11.10;;;;;;;-0.51;94.48;97041.82;102849;1303;26630;-72
2022/11/18 06:23:07;;;;;;;22.30;11.60;;;;;;;-0.52;94.66;97046.10;102929;1302;25518;-72
2022/11/18 06:25:38;;;;;;;23.20;11.40;;;;;;;-0.53;94.28;97047.09;102807;1294;25311;-71
2022/11/18 06:28:06;;;;;;;21.90;11.50;;;;;;;-0.54;94.35;97046.48;102762;1308;138295;-72
2022/11/18 06:30:33;;;;;;;22.80;12.30;;;;;;;-0.52;94.79;97052.30;102795;1294;25379;-72
2022/11/18 06:33:00;;;;;;;19.60;10.70;;;;;;;-0.51;94.84;97061.45;102770;1311;138419;-72
2022/11/18 06:35:27;;;;;;;21.10;11.20;;;;;;;-0.51;94.56;97058.44;102852;1287;22609;-72
2022/11/18 06:37:54;;;;;;;16.80;9.40;;;;;;;-0.52;94.85;97053.13;103081;1293;22518;-73
2022/11/18 06:40:20;;;;;;;18.40;10.30;;;;;;;-0.52;94.97;97054.77;102999;1287;138683;-72
2022/11/18 06:45:33;;;;;;;20.30;10.50;;;;;;;-0.50;95.03;97059.38;102820;1289;138629;-72
2022/11/18 06:48:00;;;;;;;20.00;9.80;;;;;;;-0.49;94.94;97057.91;102863;1298;25257;-72
2022/11/18 06:50:27;;;;;;;17.10;9.80;;;;;;;-0.48;94.98;97059.66;102949;1287;23880;-72
2022/11/18 06:52:55;;;;;;;21.50;10.70;;;;;;;-0.47;95.19;97070.54;102809;1304;138460;-72
2022/11/18 06:55:22;;;;;;;22.90;11.40;;;;;;;-0.44;95.31;97078.34;102838;1304;22920;-73
2022/11/18 06:57:49;;;;;;;20.30;10.60;;;;;;;-0.42;95.44;97078.41;102770;1292;139212;-72
2022/11/18 07:00:16;;;;;;;22.40;11.30;;;;;;;-0.40;95.19;97079.11;102827;1312;24449;-72
2022/11/18 07:02:43;;;;;;;21.80;11.70;;;;;;;-0.38;95.28;97079.48;102871;1297;140386;-72
2022/11/18 07:05:10;;;;;;;20.10;10.90;;;;;;;-0.35;96.09;97077.61;103391;1288;22551;-72
2022/11/18 07:07:37;;;;;;;20.90;10.40;;;;;;;-0.24;96.13;97082.58;103969;1289;22652;-73
2022/11/18 07:10:04;;;;;;;17.20;9.50;;;;;;;-0.23;94.94;97085.73;103502;1289;139558;-74
2022/11/18 07:12:31;;;;;;;17.50;8.90;;;;;;;-0.23;94.42;97089.41;104097;1287;24284;-73
2022/11/18 07:14:58;;;;;;;17.50;10.00;;;;;;;-0.25;94.06;97092.88;103066;1288;138709;-73
2022/11/18 07:17:25;;;;;;;21.00;10.70;;;;;;;-0.26;94.18;97093.69;102941;1305;25414;-72
2022/11/18 07:19:52;;;;;;;20.70;9.60;;;;;;;-0.27;93.91;97091.30;102798;1289;22500;-72
2022/11/18 07:22:19;;;;;;;18.30;9.60;;;;;;;-0.29;93.98;97082.17;102757;1290;138120;-73
2022/11/18 07:24:46;;;;;;;17.60;9.30;;;;;;;-0.31;93.92;97078.10;102980;1305;22513;-73
2022/11/18 07:27:14;;;;;;;17.90;10.30;;;;;;;-0.26;95.01;97076.90;104780;1288;138305;-73
2022/11/18 07:29:41;;;;;;;17.80;10.00;;;;;;;-0.21;94.44;97077.26;103270;1289;22475;-73
2022/11/18 07:32:08;;;;;;;17.90;9.50;;;;;;;-0.21;94.04;97081.80;103193;1293;25385;-73
2022/11/18 07:34:35;;;;;;;18.10;9.40;;;;;;;-0.23;93.47;97081.71;102879;1304;140148;-72
2022/11/18 07:37:02;;;;;;;19.30;9.90;;;;;;;-0.26;93.46;97080.19;103076;1287;22551;-72
2022/11/18 07:39:29;;;;;;;17.60;9.70;;;;;;;-0.29;93.46;97078.71;102970;1303;138187;-72
2022/11/18 07:41:56;;;;;;;18.20;10.40;;;;;;;-0.31;93.50;97080.16;103084;1287;23931;-73
2022/11/18 07:44:23;;;;;;;15.60;9.10;;;;;;;-0.33;93.64;97075.96;102902;1296;22551;-73
2022/11/18 07:46:50;;;;;;;20.60;10.10;;;;;;;-0.35;93.79;97067.44;102829;1289;138227;-74
2022/11/18 07:49:17;;;;;;;16.30;8.90;;;;;;;-0.37;93.48;97063.64;102896;1307;22480;-72
2022/11/18 07:51:44;;;;;;;17.40;9.50;;;;;;;-0.40;93.76;97055.24;102772;1301;139362;-72
2022/11/18 07:54:15;;;;;;;18.80;10.50;;;;;;;-0.40;93.88;97050.05;103071;1289;22481;-72
2022/11/18 07:56:43;;;;;;;18.10;9.10;;;;;;;-0.39;94.28;97054.84;102902;1297;138453;-73
2022/11/18 07:59:10;;;;;;;14.20;7.90;;;;;;;-0.42;93.82;97059.40;102932;1281;22487;-73
2022/11/18 08:01:37;;;;;;;19.30;9.80;;;;;;;-0.44;93.72;97062.68;102889;1298;22736;-73
2022/11/18 08:04:07;;;;;;;16.60;8.80;;;;;;;-0.45;94.01;97055.45;102865;1303;138147;-73
2022/11/18 08:06:34;;;;;;;16.70;9.10;;;;;;;-0.46;93.80;97051.06;103351;1288;25218;-73
2022/11/18 08:09:02;;;;;;;19.90;10.60;;;;;;;-0.43;94.39;97057.04;102966;1291;138383;-74
2022/11/18 08:11:29;;;;;;;18.90;10.80;;;;;;;-0.41;94.54;97065.05;102946;1297;22489;-72
2022/11/18 08:13:56;;;;;;;19.10;10.60;;;;;;;-0.40;94.44;97071.05;102932;1313;22480;-73
2022/11/18 08:16:25;;;;;;;17.70;9.70;;;;;;;-0.40;94.16;97068.66;102813;1296;139775;-73
2022/11/18 08:18:52;;;;;;;17.10;8.90;;;;;;;-0.42;93.91;97073.52;102908;1312;22518;-72
2022/11/18 08:21:21;;;;;;;19.00;10.20;;;;;;;-0.42;94.11;97070.32;102737;1312;138462;-72
2022/11/18 08:23:52;;;;;;;19.90;9.80;;;;;;;-0.40;93.99;97068.50;102169;1313;1243766;-72
2022/11/18 08:26:20;;;;;;;18.50;10.50;;;;;;;-0.38;94.14;97072.64;103002;1313;22937;-72
2022/11/18 08:28:47;;;;;;;21.30;11.00;;;;;;;-0.33;93.88;97073.34;102968;1291;138271;-73
2022/11/18 08:31:20;;;;;;;18.90;10.70;;;;;;;-0.29;94.19;97071.27;103074;1305;25627;-72
2022/11/18 08:33:47;;;;;;;21.00;10.90;;;;;;;-0.24;93.97;97072.85;103588;1298;138399;-73
2022/11/18 08:36:20;;;;;;;18.40;11.10;;;;;;;-0.19;93.87;97071.65;103195;1294;23505;-74
2022/11/18 08:38:47;;;;;;;19.20;9.60;;;;;;;-0.17;93.24;97071.11;103406;1298;139048;-72
2022/11/18 08:41:24;;;;;;;20.00;10.90;;;;;;;-0.16;93.11;97076.45;103336;1312;22549;-72
2022/11/18 08:43:51;;;;;;;15.50;9.40;;;;;;;-0.14;92.97;97080.00;103153;1313;25789;-72
2022/11/18 08:46:18;;;;;;;18.60;9.70;;;;;;;-0.14;92.91;97082.80;103200;1285;139978;-73
2022/11/18 08:48:46;;;;;;;20.50;10.10;;;;;;;-0.13;92.91;97087.44;103299;1297;25209;-74
2022/11/18 08:51:14;;;;;;;19.10;10.90;;;;;;;-0.08;93.16;97090.39;102956;1304;138641;-72
2022/11/18 08:53:41;;;;;;;14.40;9.20;;;;;;;-0.04;93.41;97091.82;103100;1312;22594;-72
2022/11/18 08:56:14;;;;;;;17.60;9.20;;;;;;;-0.03;93.13;97087.27;102959;1305;23004;-72
2022/11/18 08:58:41;;;;;;;14.30;9.00;;;;;;;0.01;92.86;97085.05;103046;1293;138209;-72
2022/11/18 09:01:09;;;;;;;15.00;8.50;;;;;;;0.04;92.76;97078.99;103173;1312;24510;-72
2022/11/18 09:03:36;;;;;;;18.10;9.70;;;;;;;0.04;92.41;97080.34;102911;1304;137966;-72
2022/11/18 09:06:21;;;;;;;16.70;9.10;;;;;;;0.02;92.15;97087.55;103272;1307;22540;-72
2022/11/18 09:08:48;;;;;;;17.60;10.00;;;;;;;0.02;92.37;97096.32;102885;1297;139337;-72
2022/11/18 09:11:21;;;;;;;17.80;9.80;;;;;;;0.03;92.53;97102.58;102935;1288;25325;-72
2022/11/18 09:13:52;;;;;;;20.20;9.60;;;;;;;0.06;92.56;97098.98;103170;1287;23921;-73
2022/11/18 09:16:22;;;;;;;16.10;8.90;;;;;;;0.07;92.21;97091.54;102955;1288;138322;-72
2022/11/18 09:18:51;;;;;;;16.50;8.30;;;;;;;0.05;91.99;97089.14;103254;1288;25285;-72
2022/11/18 09:21:18;;;;;;;17.80;9.20;;;;;;;0.05;92.08;97086.39;103265;1298;22509;-72
2022/11/18 09:23:45;;;;;;;20.90;10.30;;;;;;;0.05;91.78;97087.83;103216;1288;139915;-72
2022/11/18 09:26:15;;;;;;;15.50;8.80;;;;;;;0.04;91.72;97095.70;102935;1299;24330;-72
2022/11/18 09:28:42;;;;;;;14.90;9.00;;;;;;;0.02;91.31;97109.95;102974;1283;139002;-72
2022/11/18 09:31:13;;;;;;;15.50;8.90;;;;;;;-0.02;91.38;97109.17;103240;1288;22486;-73
2022/11/18 09:33:40;;;;;;;15.40;8.70;;;;;;;-0.02;91.57;97104.73;102917;1291;139774;-72
2022/11/18 09:36:13;;;;;;;15.30;8.00;;;;;;;-0.02;91.30;97106.87;103049;1295;25380;-72
2022/11/18 09:38:41;;;;;;;14.30;8.30;;;;;;;-0.06;90.88;97106.35;103364;1289;22514;-72
2022/11/18 09:41:08;;;;;;;17.20;7.90;;;;;;;-0.12;90.78;97109.99;102909;1294;138057;-72
2022/11/18 09:44:07;;;;;;;15.80;7.90;;;;;;;-0.14;91.35;97105.52;102936;1313;25318;-72
2022/11/18 09:47:10;;;;;;;13.10;7.40;;;;;;;-0.15;91.19;97106.46;102917;1299;138130;-72
2022/11/18 09:49:42;;;;;;;13.40;7.20;;;;;;;-0.15;91.06;97102.71;103103;1313;24505;-72
2022/11/18 09:52:23;;;;;;;18.20;9.40;;;;;;;-0.16;90.95;97106.63;102840;1307;139912;-72
2022/11/18 09:54:50;;;;;;;14.50;7.90;;;;;;;-0.14;91.51;97109.17;103101;1298;24351;-72
2022/11/18 09:57:24;;;;;;;14.10;8.30;;;;;;;-0.11;91.56;97105.58;103006;1312;22495;-72
2022/11/18 09:59:51;;;;;;;15.90;9.00;;;;;;;-0.10;90.95;97102.45;103102;1312;138279;-72
2022/11/18 10:02:28;;;;;;;14.10;9.00;;;;;;;-0.09;91.18;97101.77;102923;1312;22502;-72
2022/11/18 10:05:06;;;;;;;17.30;8.40;;;;;;;-0.07;91.25;97095.33;102877;1312;139332;-72
2022/11/18 10:07:58;;;;;;;14.80;7.80;;;;;;;-0.07;90.76;97094.25;103124;1297;22496;-72
2022/11/18 10:10:39;;;;;;;13.90;8.10;;;;;;;-0.09;90.41;97098.70;102862;1305;138130;-72
2022/11/18 10:13:34;;;;;;;14.50;7.50;;;;;;;-0.09;90.84;97105.77;103155;1297;22481;-72
2022/11/18 10:16:13;;;;;;;16.60;9.50;;;;;;;-0.06;91.19;97113.27;102923;1297;139053;-72
2022/11/18 10:19:04;;;;;;;13.50;7.70;;;;;;;-0.02;91.16;97112.23;103156;1288;22491;-71
2022/11/18 10:22:20;;;;;;;12.20;6.90;;;;;;;-0.02;90.74;97112.36;102844;1288;22851;-71
2022/11/18 10:24:55;;;;;;;14.50;8.00;;;;;;;-0.03;90.33;97115.94;102996;1312;23907;-71
2022/11/18 10:27:32;;;;;;;13.50;6.80;;;;;;;-0.04;90.48;97119.64;103010;1294;25358;-71
2022/11/18 10:30:00;;;;;;;15.20;7.90;;;;;;;-0.04;90.31;97116.77;102948;1296;137957;-71
2022/11/18 10:32:27;;;;;;;14.40;7.60;;;;;;;-0.02;90.59;97110.95;102914;1295;22513;-72
2022/11/18 10:34:57;;;;;;;14.00;6.70;;;;;;;-0.01;90.31;97110.49;103248;1287;140365;-72
2022/11/18 10:37:24;;;;;;;10.50;6.60;;;;;;;-0.03;89.94;97112.95;103020;1288;22481;-72
2022/11/18 10:39:56;;;;;;;14.40;6.50;;;;;;;-0.02;89.94;97112.52;103199;1291;139727;-73
2022/11/18 10:42:45;;;;;;;12.90;7.00;;;;;;;-0.03;89.77;97120.49;103525;1289;25464;-72
2022/11/18 10:45:24;;;;;;;12.90;7.50;;;;;;;-0.03;89.82;97121.86;103658;1283;22480;-72
2022/11/18 10:48:10;;;;;;;;;;;;;;;-0.02;89.22;97114.70;103414;1289;138086;-71
2022/11/18 10:50:50;;;;;;;12.00;6.00;;;;;;;-0.04;89.32;97116.23;103579;1289;25365;-72
2022/11/18 10:53:31;;;;;;;13.80;6.80;;;;;;;-0.07;89.35;97124.79;103257;1281;138127;-72
2022/11/18 10:56:23;;;;;;;13.60;6.80;;;;;;;-0.08;89.62;97128.71;103854;1288;26177;-72
2022/11/18 10:58:54;;;;;;;14.90;7.90;;;;;;;-0.04;90.03;97122.44;102870;1285;138242;-72
2022/11/18 11:01:24;;;;;;;22.00;10.70;;;;;;;-0.02;89.70;97118.98;103108;1294;22517;-72
2022/11/18 11:04:16;;;;;;;21.80;11.80;;;;;;;-0.02;89.51;97118.73;102704;1297;138494;-72
2022/11/18 11:06:43;;;;;;;29.60;16.80;;;;;;;-0.05;89.08;97120.66;102987;1291;22490;-73
2022/11/18 11:09:13;;;;;;;35.60;15.00;;;;;;;-0.09;88.95;97127.27;102906;1296;23391;-72
2022/11/18 11:12:02;;;;;;;28.90;15.90;;;;;;;-0.17;88.53;97132.48;102887;1310;138499;-72
2022/11/18 11:14:56;;;;;;;27.70;16.00;;;;;;;-0.27;88.92;97130.23;102862;1296;22526;-72
2022/11/18 11:17:31;;;;;;;29.20;15.40;;;;;;;-0.33;89.14;97132.42;102762;1285;138568;-72
2022/11/18 11:20:22;;;;;;;30.10;15.10;;;;;;;-0.46;88.70;97132.40;102769;1298;42586;-70
2022/11/18 11:22:50;;;;;;;29.60;16.30;;;;;;;-0.58;88.67;97135.98;103244;1296;139988;-69
2022/11/18 11:25:30;;;;;;;29.60;14.90;;;;;;;-0.67;89.18;97138.58;102871;1313;22487;-70
2022/11/18 11:28:16;;;;;;;32.10;16.50;;;;;;;-0.72;89.45;97139.16;103173;1288;138498;-70
2022/11/18 11:31:03;;;;;;;29.10;15.60;;;;;;;-0.76;89.49;97135.79;103620;1295;24261;-70
2022/11/18 11:33:38;;;;;;;32.40;16.60;;;;;;;-0.83;89.68;97137.35;102948;1289;24264;-70
2022/11/18 11:36:24;;;;;;;31.70;15.40;;;;;;;-0.89;89.61;97131.09;102912;1281;138235;-70
2022/11/18 11:39:00;;;;;;;29.10;15.40;;;;;;;-0.99;89.24;97127.34;103027;1285;24225;-72
2022/11/18 11:42:09;;;;;;;28.30;15.30;;;;;;;-1.08;89.18;97123.07;102789;1288;138493;-72
2022/11/18 11:45:16;;;;;;;26.80;15.00;;;;;;;-1.15;89.50;97128.08;102369;1290;25391;-70
2022/11/18 11:48:02;;;;;;;25.20;12.70;;;;;;;-1.21;90.12;97131.52;102745;1285;138467;-70
2022/11/18 11:50:52;;;;;;;27.00;14.20;;;;;;;-1.20;90.76;97132.67;102612;1292;22622;-70